Meteo Giornale » Osservazioni meteo Russia » Elista
ore: 19:30 - Osservazioni Meteo Elista
Lat. 46° 22' N Lon. 44° 20' E Alt. 150 metri s.l.m.
20 °C
Sereno
Temp. 24 Ore
10 °C
27 °C
Est
18 Km/h
Dew point -2 °C
Umidità 22 %
Visibilità 10 Km
Il sole sorge alle ore 05:21
Il sole tramonta alle ore 18:44
| Data e Ora | Cielo e Fenomeni | T °C | DP °C | Um. % | Pres. hPa | Vis. km | Vento km/h | |
|---|---|---|---|---|---|---|---|---|
| Oggi h: 19:30 | Sereno | 20 | -2 | 22 | 1020 | 10 | E 18 | |
| Oggi h: 19:00 | Sereno | 21 | -2 | 21 | 1020 | 10 | E 18 | |
| Oggi h: 18:30 | Sereno | 23 | -2 | 18 | 1019 | 10 | E 18 | |
| Oggi h: 18:00 | Sereno | 24 | -2 | 17 | 1019 | 10 | E/SE 21.6 | |
| Oggi h: 17:30 | Sereno | 25 | -3 | 15 | 1019 | 10 | E/SE 25.2 | |
| Oggi h: 17:00 | Sereno | 26 | -3 | 14 | 1019 | 10 | E/SE 25.2 | |
| Oggi h: 16:30 | Sereno | 26 | -3 | 14 | 1019 | 10 | E/SE 25.2 | |
| Oggi h: 16:00 | Sereno | 27 | -3 | 13 | 1020 | 10 | E 28.8 | |
| Oggi h: 15:47 | Sereno | 27 | -3 | 13 | 1020 | 10 | E 28.8 | |
| Oggi h: 15:36 | Sereno | 27 | -4 | 12 | 1020 | 10 | E/SE 25.2 | |
| Oggi h: 15:30 | Sereno | 27 | -4 | 12 | 1020 | 10 | E/SE 28.8 | |
| Oggi h: 15:17 | Sereno | 27 | -4 | 12 | 1020 | 10 | E/SE 25.2 | |
| Oggi h: 15:00 | Sereno | 26 | -5 | 12 | 1020 | 10 | E 28.8 | |
| Oggi h: 14:50 | Sereno | 27 | -5 | 11 | 1020 | 10 | E/SE 25.2 | |
| Oggi h: 14:47 | Sereno | 26 | -5 | 12 | 1020 | 10 | E/SE 28.8 | |
| Oggi h: 14:30 | Sereno | 27 | -5 | 11 | 1020 | 10 | E/SE 32.4 | |
| Oggi h: 14:00 | Sereno | 27 | -5 | 11 | 1020 | 10 | E/SE 28.8 | |
| Oggi h: 13:30 | Sereno | 27 | -4 | 12 | 1020 | 10 | E/SE 28.8 | |
| Oggi h: 13:00 | Sereno | 26 | -5 | 12 | 1021 | 10 | E/SE 32.4 | |
| Oggi h: 12:30 | Sereno | 26 | -4 | 13 | 1021 | 10 | E 36 | |
| Oggi h: 12:00 | Sereno | 25 | -4 | 14 | 1021 | 10 | E 32.4 | |
| Oggi h: 11:30 | Sereno | 25 | -3 | 15 | 1021 | 10 | E 36 | |
| Oggi h: 11:00 | Sereno | 25 | -2 | 16 | 1021 | 10 | E 32.4 | |
| Oggi h: 10:30 | Sereno | 24 | -2 | 17 | 1022 | 9 | E 36 | |
| Oggi h: 10:00 | Sereno | 23 | -2 | 18 | 1022 | 10 | E/SE 36 | |
| Oggi h: 09:30 | Sereno | 22 | 0 | 23 | 1022 | 10 | E 32.4 | |
| Oggi h: 09:00 | Sereno | 21 | 0 | 24 | 1022 | 10 | E/SE 28.8 | |
| Oggi h: 08:30 | Sereno | 19 | 2 | 32 | 1022 | 10 | E 21.6 | |
| Oggi h: 08:00 | Sereno | 17 | 3 | 39 | 1022 | 10 | E 14.4 | |
| Oggi h: 07:30 | Sereno | 16 | 4 | 44 | 1022 | 10 | E 14.4 | |
| Oggi h: 07:00 | Sereno | 14 | 4 | 50 | 1022 | 10 | N 7.2 | |
| Oggi h: 06:30 | Sereno | 12 | 4 | 57 | 1022 | 10 | N 7.2 | |
| Oggi h: 06:00 | Sereno | 10 | 4 | 66 | 1022 | 10 | N 7.2 | |
| Oggi h: 05:30 | Sereno | 10 | 3 | 61 | 1022 | 10 | E/NE 10.8 | |
| Oggi h: 05:00 | Sereno | 10 | 5 | 71 | 1022 | 10 | E 10.8 | |
| Oggi h: 04:30 | Sereno | 10 | 6 | 76 | 1022 | 10 | E/SE 10.8 | |
| Oggi h: 04:00 | Sereno | 11 | 7 | 76 | 1022 | 10 | E 14.4 | |
| Oggi h: 03:30 | Sereno | 11 | 5 | 66 | 1022 | 10 | E 14.4 | |
| Oggi h: 03:00 | Sereno | 11 | 6 | 71 | 1022 | 10 | SE 14.4 | |
| Oggi h: 02:30 | Sereno | 12 | 7 | 71 | 1022 | 10 | E/SE 18 | |
| Oggi h: 02:00 | Sereno | 13 | 7 | 66 | 1022 | 10 | E/SE 10.8 | |
| Oggi h: 01:30 | Sereno | 14 | 6 | 58 | 1021 | 10 | SE 18 | |
| Oggi h: 01:00 | Sereno | 12 | 3 | 54 | 1021 | 10 | SE 14.4 | |
| Oggi h: 00:30 | Sereno | 13 | 3 | 50 | 1021 | 10 | E/SE 14.4 | |
| Oggi h: 00:00 | Sereno | 14 | 3 | 47 | 1021 | 10 | E/SE 10.8 | |
| Ieri h: 23:30 | Sereno | 15 | 1 | 38 | 1021 | 10 | SE 14.4 | |
| Ieri h: 23:00 | Sereno | 16 | 0 | 33 | 1021 | 10 | E/SE 14.4 | |
| Ieri h: 22:30 | Sereno | 17 | -2 | 27 | 1021 | 10 | E/SE 18 | |
| Ieri h: 22:00 | Sereno | 16 | -5 | 23 | 1021 | 10 | E 21.6 | |
| Ieri h: 21:30 | Sereno | 17 | -5 | 21 | 1021 | 10 | E 21.6 | |
| Ieri h: 21:00 | Sereno | 18 | -5 | 20 | 1021 | 10 | E 21.6 | |



